sensor_id;sensor_type;location;lat;lon;timestamp;temperature;humidity
3172;DHT22;1597;51.572;6.992;2023-07-29T00:00:49;20.10;99.90
3172;DHT22;1597;51.572;6.992;2023-07-29T00:03:14;20.10;99.90
3172;DHT22;1597;51.572;6.992;2023-07-29T00:05:41;20.10;99.90
3172;DHT22;1597;51.572;6.992;2023-07-29T00:08:07;20.10;99.90
3172;DHT22;1597;51.572;6.992;2023-07-29T00:10:36;20.10;99.90
3172;DHT22;1597;51.572;6.992;2023-07-29T00:20:06;20.00;99.90
3172;DHT22;1597;51.572;6.992;2023-07-29T00:26:14;20.10;99.90
3172;DHT22;1597;51.572;6.992;2023-07-29T00:28:40;20.00;99.90
3172;DHT22;1597;51.572;6.992;2023-07-29T00:31:05;19.90;99.90
3172;DHT22;1597;51.572;6.992;2023-07-29T00:33:31;19.90;99.90
3172;DHT22;1597;51.572;6.992;2023-07-29T00:35:57;19.90;99.90
3172;DHT22;1597;51.572;6.992;2023-07-29T00:38:32;20.00;99.90
3172;DHT22;1597;51.572;6.992;2023-07-29T00:41:02;19.90;99.90
3172;DHT22;1597;51.572;6.992;2023-07-29T00:43:29;19.90;99.90
3172;DHT22;1597;51.572;6.992;2023-07-29T00:45:55;19.90;99.90
3172;DHT22;1597;51.572;6.992;2023-07-29T00:48:23;19.80;99.90
3172;DHT22;1597;51.572;6.992;2023-07-29T00:50:50;19.80;99.90
3172;DHT22;1597;51.572;6.992;2023-07-29T00:53:16;19.80;99.90
3172;DHT22;1597;51.572;6.992;2023-07-29T00:55:42;19.80;99.90
3172;DHT22;1597;51.572;6.992;2023-07-29T00:58:08;19.90;99.90
3172;DHT22;1597;51.572;6.992;2023-07-29T01:00:34;19.90;99.90
3172;DHT22;1597;51.572;6.992;2023-07-29T01:03:00;19.80;99.90
3172;DHT22;1597;51.572;6.992;2023-07-29T01:05:40;19.80;99.90
3172;DHT22;1597;51.572;6.992;2023-07-29T01:09:05;19.80;99.90
3172;DHT22;1597;51.572;6.992;2023-07-29T01:11:58;19.90;99.90
3172;DHT22;1597;51.572;6.992;2023-07-29T01:14:41;19.90;99.90
3172;DHT22;1597;51.572;6.992;2023-07-29T01:17:29;19.90;99.90
3172;DHT22;1597;51.572;6.992;2023-07-29T01:20:07;19.90;99.90
3172;DHT22;1597;51.572;6.992;2023-07-29T01:22:35;20.00;99.90
3172;DHT22;1597;51.572;6.992;2023-07-29T01:25:03;20.00;99.90
3172;DHT22;1597;51.572;6.992;2023-07-29T01:34:10;20.00;99.90
3172;DHT22;1597;51.572;6.992;2023-07-29T01:36:44;19.90;99.90
3172;DHT22;1597;51.572;6.992;2023-07-29T01:39:49;20.00;99.90
3172;DHT22;1597;51.572;6.992;2023-07-29T01:42:19;20.00;99.90
3172;DHT22;1597;51.572;6.992;2023-07-29T01:44:49;19.90;99.90
3172;DHT22;1597;51.572;6.992;2023-07-29T01:47:21;20.00;99.90
3172;DHT22;1597;51.572;6.992;2023-07-29T01:49:51;20.00;99.90
3172;DHT22;1597;51.572;6.992;2023-07-29T01:52:17;20.00;99.90
3172;DHT22;1597;51.572;6.992;2023-07-29T01:54:43;20.00;99.90
3172;DHT22;1597;51.572;6.992;2023-07-29T01:57:12;20.00;99.90
3172;DHT22;1597;51.572;6.992;2023-07-29T01:59:44;20.10;99.90
3172;DHT22;1597;51.572;6.992;2023-07-29T02:02:15;20.10;99.90
3172;DHT22;1597;51.572;6.992;2023-07-29T02:04:41;20.10;99.90
3172;DHT22;1597;51.572;6.992;2023-07-29T02:07:25;20.10;99.90
3172;DHT22;1597;51.572;6.992;2023-07-29T02:09:52;20.10;99.90
3172;DHT22;1597;51.572;6.992;2023-07-29T02:12:27;20.10;99.90
3172;DHT22;1597;51.572;6.992;2023-07-29T02:15:17;20.10;99.90
3172;DHT22;1597;51.572;6.992;2023-07-29T02:17:51;20.00;99.90
3172;DHT22;1597;51.572;6.992;2023-07-29T02:20:17;20.00;99.90
3172;DHT22;1597;51.572;6.992;2023-07-29T02:29:05;20.10;99.90
3172;DHT22;1597;51.572;6.992;2023-07-29T02:37:43;20.00;99.90
3172;DHT22;1597;51.572;6.992;2023-07-29T02:40:18;20.10;99.90
3172;DHT22;1597;51.572;6.992;2023-07-29T02:42:43;20.10;99.90
3172;DHT22;1597;51.572;6.992;2023-07-29T02:45:09;20.10;99.90
3172;DHT22;1597;51.572;6.992;2023-07-29T02:47:37;20.10;99.90
3172;DHT22;1597;51.572;6.992;2023-07-29T02:53:44;20.10;99.90
3172;DHT22;1597;51.572;6.992;2023-07-29T02:56:10;20.00;99.90
3172;DHT22;1597;51.572;6.992;2023-07-29T02:58:37;20.00;99.90
3172;DHT22;1597;51.572;6.992;2023-07-29T03:01:06;20.00;99.90
3172;DHT22;1597;51.572;6.992;2023-07-29T03:03:32;20.00;99.90
3172;DHT22;1597;51.572;6.992;2023-07-29T03:06:07;20.00;99.90
3172;DHT22;1597;51.572;6.992;2023-07-29T03:08:37;20.00;99.90
3172;DHT22;1597;51.572;6.992;2023-07-29T03:11:16;20.00;99.90
3172;DHT22;1597;51.572;6.992;2023-07-29T03:13:43;20.00;99.90
3172;DHT22;1597;51.572;6.992;2023-07-29T03:16:15;19.90;99.90
3172;DHT22;1597;51.572;6.992;2023-07-29T03:18:47;19.90;99.90
3172;DHT22;1597;51.572;6.992;2023-07-29T03:21:16;19.80;99.90
3172;DHT22;1597;51.572;6.992;2023-07-29T03:23:42;19.80;99.90
3172;DHT22;1597;51.572;6.992;2023-07-29T03:26:08;19.80;99.90
3172;DHT22;1597;51.572;6.992;2023-07-29T03:28:40;19.80;99.90
3172;DHT22;1597;51.572;6.992;2023-07-29T03:31:07;19.80;99.90
3172;DHT22;1597;51.572;6.992;2023-07-29T03:33:33;19.80;99.90
3172;DHT22;1597;51.572;6.992;2023-07-29T03:35:59;19.80;99.90
3172;DHT22;1597;51.572;6.992;2023-07-29T03:38:25;19.80;99.90
3172;DHT22;1597;51.572;6.992;2023-07-29T03:40:51;19.80;99.90
3172;DHT22;1597;51.572;6.992;2023-07-29T03:43:18;19.70;99.90
3172;DHT22;1597;51.572;6.992;2023-07-29T03:45:44;19.80;99.90
3172;DHT22;1597;51.572;6.992;2023-07-29T03:48:10;19.80;99.90
3172;DHT22;1597;51.572;6.992;2023-07-29T03:50:36;19.80;99.90
3172;DHT22;1597;51.572;6.992;2023-07-29T03:53:03;19.70;99.90
3172;DHT22;1597;51.572;6.992;2023-07-29T03:55:29;19.70;99.90
3172;DHT22;1597;51.572;6.992;2023-07-29T03:57:59;19.70;99.90
3172;DHT22;1597;51.572;6.992;2023-07-29T04:00:26;19.70;99.90
3172;DHT22;1597;51.572;6.992;2023-07-29T04:02:52;19.70;99.90
3172;DHT22;1597;51.572;6.992;2023-07-29T04:05:18;19.70;99.90
3172;DHT22;1597;51.572;6.992;2023-07-29T04:07:44;19.80;99.90
3172;DHT22;1597;51.572;6.992;2023-07-29T04:10:10;19.80;99.90
3172;DHT22;1597;51.572;6.992;2023-07-29T04:12:36;19.80;99.90
3172;DHT22;1597;51.572;6.992;2023-07-29T04:15:02;19.70;99.90
3172;DHT22;1597;51.572;6.992;2023-07-29T04:17:28;19.70;99.90
3172;DHT22;1597;51.572;6.992;2023-07-29T04:19:54;19.70;99.90
3172;DHT22;1597;51.572;6.992;2023-07-29T04:22:20;19.60;99.90
3172;DHT22;1597;51.572;6.992;2023-07-29T04:24:46;19.60;99.90
3172;DHT22;1597;51.572;6.992;2023-07-29T04:27:12;19.50;99.90
3172;DHT22;1597;51.572;6.992;2023-07-29T04:29:38;19.50;99.90
3172;DHT22;1597;51.572;6.992;2023-07-29T04:32:04;19.50;99.90
3172;DHT22;1597;51.572;6.992;2023-07-29T04:34:31;19.50;99.90
3172;DHT22;1597;51.572;6.992;2023-07-29T04:36:57;19.50;99.90
3172;DHT22;1597;51.572;6.992;2023-07-29T04:39:22;19.40;99.90
3172;DHT22;1597;51.572;6.992;2023-07-29T04:41:48;19.30;99.90
3172;DHT22;1597;51.572;6.992;2023-07-29T04:44:14;19.20;99.90
3172;DHT22;1597;51.572;6.992;2023-07-29T04:46:40;19.20;99.90
3172;DHT22;1597;51.572;6.992;2023-07-29T04:49:06;19.10;99.90
3172;DHT22;1597;51.572;6.992;2023-07-29T04:51:32;19.20;99.90
3172;DHT22;1597;51.572;6.992;2023-07-29T04:53:58;19.20;99.90
3172;DHT22;1597;51.572;6.992;2023-07-29T04:56:24;19.20;99.90
3172;DHT22;1597;51.572;6.992;2023-07-29T04:58:50;19.20;99.90
3172;DHT22;1597;51.572;6.992;2023-07-29T05:01:16;19.20;99.90
3172;DHT22;1597;51.572;6.992;2023-07-29T05:03:42;19.10;99.90
3172;DHT22;1597;51.572;6.992;2023-07-29T05:06:08;19.10;99.90
3172;DHT22;1597;51.572;6.992;2023-07-29T05:08:54;19.00;99.90
3172;DHT22;1597;51.572;6.992;2023-07-29T05:11:20;19.00;99.90
3172;DHT22;1597;51.572;6.992;2023-07-29T05:13:45;19.10;99.90
3172;DHT22;1597;51.572;6.992;2023-07-29T05:16:13;19.10;99.90
3172;DHT22;1597;51.572;6.992;2023-07-29T05:18:40;19.10;99.90
3172;DHT22;1597;51.572;6.992;2023-07-29T05:21:06;19.20;99.90
3172;DHT22;1597;51.572;6.992;2023-07-29T05:23:39;19.20;99.90
3172;DHT22;1597;51.572;6.992;2023-07-29T05:26:05;19.20;99.90
3172;DHT22;1597;51.572;6.992;2023-07-29T05:28:31;19.20;99.90
3172;DHT22;1597;51.572;6.992;2023-07-29T05:30:56;19.20;99.90
3172;DHT22;1597;51.572;6.992;2023-07-29T05:33:26;19.30;99.90
3172;DHT22;1597;51.572;6.992;2023-07-29T05:35:52;19.20;99.90
3172;DHT22;1597;51.572;6.992;2023-07-29T05:38:17;19.20;99.90
3172;DHT22;1597;51.572;6.992;2023-07-29T05:40:43;19.10;99.90
3172;DHT22;1597;51.572;6.992;2023-07-29T05:43:09;19.00;99.90
3172;DHT22;1597;51.572;6.992;2023-07-29T05:45:35;19.00;99.90
3172;DHT22;1597;51.572;6.992;2023-07-29T05:48:04;19.00;99.90
3172;DHT22;1597;51.572;6.992;2023-07-29T05:50:30;19.00;99.90
3172;DHT22;1597;51.572;6.992;2023-07-29T05:52:56;19.00;99.90
3172;DHT22;1597;51.572;6.992;2023-07-29T05:55:24;19.00;99.90
3172;DHT22;1597;51.572;6.992;2023-07-29T05:57:50;18.90;99.90
3172;DHT22;1597;51.572;6.992;2023-07-29T06:00:16;18.90;99.90
3172;DHT22;1597;51.572;6.992;2023-07-29T06:02:42;18.80;99.90
3172;DHT22;1597;51.572;6.992;2023-07-29T06:05:07;18.80;99.90
3172;DHT22;1597;51.572;6.992;2023-07-29T06:07:36;18.80;99.90
3172;DHT22;1597;51.572;6.992;2023-07-29T06:10:03;18.80;99.90
3172;DHT22;1597;51.572;6.992;2023-07-29T06:12:29;18.80;99.90
3172;DHT22;1597;51.572;6.992;2023-07-29T06:14:55;18.90;99.90
3172;DHT22;1597;51.572;6.992;2023-07-29T06:17:21;18.80;99.90
3172;DHT22;1597;51.572;6.992;2023-07-29T06:19:46;18.90;99.90
3172;DHT22;1597;51.572;6.992;2023-07-29T06:22:12;18.80;99.90
3172;DHT22;1597;51.572;6.992;2023-07-29T06:24:38;18.80;99.90
3172;DHT22;1597;51.572;6.992;2023-07-29T06:27:04;18.90;99.90
3172;DHT22;1597;51.572;6.992;2023-07-29T06:29:30;18.90;99.90
3172;DHT22;1597;51.572;6.992;2023-07-29T06:31:55;18.90;99.90
3172;DHT22;1597;51.572;6.992;2023-07-29T06:34:21;19.00;99.90
3172;DHT22;1597;51.572;6.992;2023-07-29T06:36:47;19.00;99.90
3172;DHT22;1597;51.572;6.992;2023-07-29T06:39:13;19.00;99.90
3172;DHT22;1597;51.572;6.992;2023-07-29T06:41:39;19.10;99.90
3172;DHT22;1597;51.572;6.992;2023-07-29T06:44:05;19.10;99.90
3172;DHT22;1597;51.572;6.992;2023-07-29T06:46:31;19.10;99.90
3172;DHT22;1597;51.572;6.992;2023-07-29T06:48:57;19.00;99.90
3172;DHT22;1597;51.572;6.992;2023-07-29T06:51:24;19.10;99.90
3172;DHT22;1597;51.572;6.992;2023-07-29T06:53:52;19.10;99.90
3172;DHT22;1597;51.572;6.992;2023-07-29T06:56:19;19.10;99.90
3172;DHT22;1597;51.572;6.992;2023-07-29T06:58:45;19.20;99.90
3172;DHT22;1597;51.572;6.992;2023-07-29T07:01:11;19.10;99.90
3172;DHT22;1597;51.572;6.992;2023-07-29T07:03:36;19.10;99.90
3172;DHT22;1597;51.572;6.992;2023-07-29T07:06:02;19.20;99.90
3172;DHT22;1597;51.572;6.992;2023-07-29T07:08:28;19.20;99.90
3172;DHT22;1597;51.572;6.992;2023-07-29T07:10:57;19.30;99.90
3172;DHT22;1597;51.572;6.992;2023-07-29T07:13:26;19.30;99.90
3172;DHT22;1597;51.572;6.992;2023-07-29T07:15:55;19.30;99.90
3172;DHT22;1597;51.572;6.992;2023-07-29T07:18:23;19.30;99.90
3172;DHT22;1597;51.572;6.992;2023-07-29T07:20:49;19.30;99.90
3172;DHT22;1597;51.572;6.992;2023-07-29T07:23:18;19.30;99.90
3172;DHT22;1597;51.572;6.992;2023-07-29T07:25:44;19.40;99.90
3172;DHT22;1597;51.572;6.992;2023-07-29T07:28:10;19.40;99.90
3172;DHT22;1597;51.572;6.992;2023-07-29T07:30:40;19.60;99.90
3172;DHT22;1597;51.572;6.992;2023-07-29T07:33:07;19.70;99.90
3172;DHT22;1597;51.572;6.992;2023-07-29T07:35:34;19.80;99.90
3172;DHT22;1597;51.572;6.992;2023-07-29T07:37:59;19.80;99.90
3172;DHT22;1597;51.572;6.992;2023-07-29T07:40:33;19.80;98.10
3172;DHT22;1597;51.572;6.992;2023-07-29T07:42:59;19.70;97.60
3172;DHT22;1597;51.572;6.992;2023-07-29T07:45:25;19.70;98.70
3172;DHT22;1597;51.572;6.992;2023-07-29T07:47:55;19.70;99.30
3172;DHT22;1597;51.572;6.992;2023-07-29T07:50:40;19.70;99.90
3172;DHT22;1597;51.572;6.992;2023-07-29T07:53:06;19.70;99.60
3172;DHT22;1597;51.572;6.992;2023-07-29T07:55:33;19.70;99.70
3172;DHT22;1597;51.572;6.992;2023-07-29T07:57:58;19.80;98.40
3172;DHT22;1597;51.572;6.992;2023-07-29T08:00:24;19.80;99.90
3172;DHT22;1597;51.572;6.992;2023-07-29T08:02:51;19.80;99.90
3172;DHT22;1597;51.572;6.992;2023-07-29T08:05:17;19.90;99.90
3172;DHT22;1597;51.572;6.992;2023-07-29T08:11:02;20.00;98.90
3172;DHT22;1597;51.572;6.992;2023-07-29T08:13:28;20.10;99.90
3172;DHT22;1597;51.572;6.992;2023-07-29T08:15:57;20.20;99.50
3172;DHT22;1597;51.572;6.992;2023-07-29T08:18:22;20.40;96.20
3172;DHT22;1597;51.572;6.992;2023-07-29T08:20:59;20.40;95.80
3172;DHT22;1597;51.572;6.992;2023-07-29T08:23:30;20.40;93.90
3172;DHT22;1597;51.572;6.992;2023-07-29T08:25:59;20.40;94.70
3172;DHT22;1597;51.572;6.992;2023-07-29T08:28:36;20.40;95.80
3172;DHT22;1597;51.572;6.992;2023-07-29T08:31:04;20.50;95.70
3172;DHT22;1597;51.572;6.992;2023-07-29T08:33:31;20.60;92.80
3172;DHT22;1597;51.572;6.992;2023-07-29T08:36:00;20.70;89.50
3172;DHT22;1597;51.572;6.992;2023-07-29T08:38:26;20.70;79.20
3172;DHT22;1597;51.572;6.992;2023-07-29T08:44:06;20.80;80.50
3172;DHT22;1597;51.572;6.992;2023-07-29T08:46:36;20.90;82.10
3172;DHT22;1597;51.572;6.992;2023-07-29T08:49:05;21.10;81.90
3172;DHT22;1597;51.572;6.992;2023-07-29T08:51:36;21.20;74.10
3172;DHT22;1597;51.572;6.992;2023-07-29T08:54:06;21.30;73.40
3172;DHT22;1597;51.572;6.992;2023-07-29T08:56:32;21.40;77.40
3172;DHT22;1597;51.572;6.992;2023-07-29T08:58:58;21.40;61.50
3172;DHT22;1597;51.572;6.992;2023-07-29T09:01:25;21.40;68.80
3172;DHT22;1597;51.572;6.992;2023-07-29T09:03:52;21.40;62.90
3172;DHT22;1597;51.572;6.992;2023-07-29T09:06:18;21.40;60.90
3172;DHT22;1597;51.572;6.992;2023-07-29T09:08:46;21.50;46.90
3172;DHT22;1597;51.572;6.992;2023-07-29T09:11:15;21.50;46.40
3172;DHT22;1597;51.572;6.992;2023-07-29T09:13:43;21.60;49.00
3172;DHT22;1597;51.572;6.992;2023-07-29T09:16:09;21.70;59.20
3172;DHT22;1597;51.572;6.992;2023-07-29T09:18:35;21.70;56.20
3172;DHT22;1597;51.572;6.992;2023-07-29T09:21:01;21.80;49.80
3172;DHT22;1597;51.572;6.992;2023-07-29T09:23:27;22.00;41.60
3172;DHT22;1597;51.572;6.992;2023-07-29T09:26:12;21.90;39.60
3172;DHT22;1597;51.572;6.992;2023-07-29T09:28:53;21.90;43.30
3172;DHT22;1597;51.572;6.992;2023-07-29T09:31:22;21.90;46.30
3172;DHT22;1597;51.572;6.992;2023-07-29T09:33:50;21.60;43.40
3172;DHT22;1597;51.572;6.992;2023-07-29T09:36:22;21.90;46.00
3172;DHT22;1597;51.572;6.992;2023-07-29T09:38:48;21.90;53.40
3172;DHT22;1597;51.572;6.992;2023-07-29T09:41:18;22.00;50.50
3172;DHT22;1597;51.572;6.992;2023-07-29T09:43:43;21.90;51.40
3172;DHT22;1597;51.572;6.992;2023-07-29T09:46:09;21.80;56.90
3172;DHT22;1597;51.572;6.992;2023-07-29T09:48:36;21.80;59.90
3172;DHT22;1597;51.572;6.992;2023-07-29T09:51:12;21.60;62.20
3172;DHT22;1597;51.572;6.992;2023-07-29T09:53:46;21.40;69.60
3172;DHT22;1597;51.572;6.992;2023-07-29T09:56:13;21.40;73.50
3172;DHT22;1597;51.572;6.992;2023-07-29T09:58:42;21.40;78.70
3172;DHT22;1597;51.572;6.992;2023-07-29T10:01:12;21.40;83.10
3172;DHT22;1597;51.572;6.992;2023-07-29T10:03:38;21.40;90.30
3172;DHT22;1597;51.572;6.992;2023-07-29T10:06:05;21.30;89.40
3172;DHT22;1597;51.572;6.992;2023-07-29T10:08:33;21.40;86.70
3172;DHT22;1597;51.572;6.992;2023-07-29T10:11:07;21.50;86.80
3172;DHT22;1597;51.572;6.992;2023-07-29T10:13:46;21.60;86.50
3172;DHT22;1597;51.572;6.992;2023-07-29T10:16:18;21.70;82.40
3172;DHT22;1597;51.572;6.992;2023-07-29T10:18:46;21.70;68.90
3172;DHT22;1597;51.572;6.992;2023-07-29T10:21:17;21.70;71.50
3172;DHT22;1597;51.572;6.992;2023-07-29T10:23:47;21.90;72.00
3172;DHT22;1597;51.572;6.992;2023-07-29T10:26:19;22.00;60.50
3172;DHT22;1597;51.572;6.992;2023-07-29T10:36:05;22.40;38.50
3172;DHT22;1597;51.572;6.992;2023-07-29T10:38:35;22.60;40.60
3172;DHT22;1597;51.572;6.992;2023-07-29T10:41:13;22.60;33.80
3172;DHT22;1597;51.572;6.992;2023-07-29T10:43:42;22.60;24.90
3172;DHT22;1597;51.572;6.992;2023-07-29T10:46:22;22.70;26.00
3172;DHT22;1597;51.572;6.992;2023-07-29T10:48:56;22.70;28.40
3172;DHT22;1597;51.572;6.992;2023-07-29T10:51:36;22.70;30.60
3172;DHT22;1597;51.572;6.992;2023-07-29T10:54:18;22.70;31.00
3172;DHT22;1597;51.572;6.992;2023-07-29T10:56:48;22.70;32.10
3172;DHT22;1597;51.572;6.992;2023-07-29T11:02:12;22.60;40.10
3172;DHT22;1597;51.572;6.992;2023-07-29T11:04:55;22.70;31.10
3172;DHT22;1597;51.572;6.992;2023-07-29T11:07:26;22.80;30.70
3172;DHT22;1597;51.572;6.992;2023-07-29T11:10:04;22.90;26.20
3172;DHT22;1597;51.572;6.992;2023-07-29T11:15:11;23.00;20.60
3172;DHT22;1597;51.572;6.992;2023-07-29T11:17:58;22.90;22.50
3172;DHT22;1597;51.572;6.992;2023-07-29T11:20:32;22.80;28.60
3172;DHT22;1597;51.572;6.992;2023-07-29T11:23:31;22.70;24.30
3172;DHT22;1597;51.572;6.992;2023-07-29T11:26:03;22.60;30.80
3172;DHT22;1597;51.572;6.992;2023-07-29T11:28:38;22.40;29.00
3172;DHT22;1597;51.572;6.992;2023-07-29T11:31:12;22.40;33.50
3172;DHT22;1597;51.572;6.992;2023-07-29T11:33:40;22.40;34.60
3172;DHT22;1597;51.572;6.992;2023-07-29T11:36:06;22.30;30.00
3172;DHT22;1597;51.572;6.992;2023-07-29T11:38:32;22.30;35.70
3172;DHT22;1597;51.572;6.992;2023-07-29T11:41:02;22.30;39.00
3172;DHT22;1597;51.572;6.992;2023-07-29T11:43:29;22.30;45.60
3172;DHT22;1597;51.572;6.992;2023-07-29T11:45:55;22.40;40.80
3172;DHT22;1597;51.572;6.992;2023-07-29T11:48:28;22.40;43.70
3172;DHT22;1597;51.572;6.992;2023-07-29T11:50:56;22.40;46.90
3172;DHT22;1597;51.572;6.992;2023-07-29T11:53:22;22.40;48.40
3172;DHT22;1597;51.572;6.992;2023-07-29T11:55:53;22.40;50.30
3172;DHT22;1597;51.572;6.992;2023-07-29T11:58:20;22.40;47.40
3172;DHT22;1597;51.572;6.992;2023-07-29T12:00:47;22.40;44.90
3172;DHT22;1597;51.572;6.992;2023-07-29T12:03:13;22.50;37.60
3172;DHT22;1597;51.572;6.992;2023-07-29T12:05:42;22.60;33.70
3172;DHT22;1597;51.572;6.992;2023-07-29T12:08:09;22.80;30.50
3172;DHT22;1597;51.572;6.992;2023-07-29T12:10:35;23.10;25.20
3172;DHT22;1597;51.572;6.992;2023-07-29T12:13:03;23.20;17.10
3172;DHT22;1597;51.572;6.992;2023-07-29T12:15:34;23.40;14.80
3172;DHT22;1597;51.572;6.992;2023-07-29T12:18:00;23.40;10.60
3172;DHT22;1597;51.572;6.992;2023-07-29T12:20:26;23.30;14.60
3172;DHT22;1597;51.572;6.992;2023-07-29T12:22:57;23.40;13.80
3172;DHT22;1597;51.572;6.992;2023-07-29T12:25:29;23.40;15.40
3172;DHT22;1597;51.572;6.992;2023-07-29T12:28:03;23.30;13.00
3172;DHT22;1597;51.572;6.992;2023-07-29T12:30:30;23.20;12.00
3172;DHT22;1597;51.572;6.992;2023-07-29T12:32:56;23.10;11.20
3172;DHT22;1597;51.572;6.992;2023-07-29T12:35:22;23.00;13.40
3172;DHT22;1597;51.572;6.992;2023-07-29T12:37:58;23.00;19.30
3172;DHT22;1597;51.572;6.992;2023-07-29T12:40:25;23.10;15.90
3172;DHT22;1597;51.572;6.992;2023-07-29T12:42:52;23.20;10.20
3172;DHT22;1597;51.572;6.992;2023-07-29T12:45:18;23.40;5.50
3172;DHT22;1597;51.572;6.992;2023-07-29T12:47:45;23.50;6.30
3172;DHT22;1597;51.572;6.992;2023-07-29T12:50:11;23.60;7.80
3172;DHT22;1597;51.572;6.992;2023-07-29T12:52:39;23.50;4.30
3172;DHT22;1597;51.572;6.992;2023-07-29T12:55:05;23.50;5.60
3172;DHT22;1597;51.572;6.992;2023-07-29T12:57:34;23.50;4.40
3172;DHT22;1597;51.572;6.992;2023-07-29T13:00:02;23.40;5.70
3172;DHT22;1597;51.572;6.992;2023-07-29T13:02:29;23.50;8.30
3172;DHT22;1597;51.572;6.992;2023-07-29T13:04:55;23.40;7.20
3172;DHT22;1597;51.572;6.992;2023-07-29T13:07:21;23.50;8.20
3172;DHT22;1597;51.572;6.992;2023-07-29T13:09:46;23.40;4.30
3172;DHT22;1597;51.572;6.992;2023-07-29T13:12:12;23.40;4.90
3172;DHT22;1597;51.572;6.992;2023-07-29T13:14:39;23.40;4.10
3172;DHT22;1597;51.572;6.992;2023-07-29T13:17:05;23.50;5.90
3172;DHT22;1597;51.572;6.992;2023-07-29T13:19:31;23.50;6.10
3172;DHT22;1597;51.572;6.992;2023-07-29T13:21:56;23.40;5.40
3172;DHT22;1597;51.572;6.992;2023-07-29T13:24:22;23.40;8.30
3172;DHT22;1597;51.572;6.992;2023-07-29T13:26:48;23.40;13.20
3172;DHT22;1597;51.572;6.992;2023-07-29T13:29:16;23.30;12.40
3172;DHT22;1597;51.572;6.992;2023-07-29T13:31:43;23.30;13.40
3172;DHT22;1597;51.572;6.992;2023-07-29T13:34:09;23.20;17.00
3172;DHT22;1597;51.572;6.992;2023-07-29T13:36:34;23.20;18.50
3172;DHT22;1597;51.572;6.992;2023-07-29T13:39:00;23.10;19.20
3172;DHT22;1597;51.572;6.992;2023-07-29T13:41:27;23.00;18.70
3172;DHT22;1597;51.572;6.992;2023-07-29T13:43:53;22.90;20.50
3172;DHT22;1597;51.572;6.992;2023-07-29T13:46:18;22.90;20.40
3172;DHT22;1597;51.572;6.992;2023-07-29T13:48:46;22.80;18.40
3172;DHT22;1597;51.572;6.992;2023-07-29T13:51:13;22.70;22.60
3172;DHT22;1597;51.572;6.992;2023-07-29T13:53:39;22.70;43.90
3172;DHT22;1597;51.572;6.992;2023-07-29T13:56:05;22.60;65.90
3172;DHT22;1597;51.572;6.992;2023-07-29T13:58:31;22.50;71.80
3172;DHT22;1597;51.572;6.992;2023-07-29T14:00:57;22.30;87.60
3172;DHT22;1597;51.572;6.992;2023-07-29T14:03:22;22.00;99.30
3172;DHT22;1597;51.572;6.992;2023-07-29T14:05:48;21.60;98.60
3172;DHT22;1597;51.572;6.992;2023-07-29T14:08:14;20.80;99.90
3172;DHT22;1597;51.572;6.992;2023-07-29T14:10:40;20.10;99.90
3172;DHT22;1597;51.572;6.992;2023-07-29T14:13:05;19.50;99.90
3172;DHT22;1597;51.572;6.992;2023-07-29T14:15:31;19.10;99.90
3172;DHT22;1597;51.572;6.992;2023-07-29T14:17:58;18.70;99.90
3172;DHT22;1597;51.572;6.992;2023-07-29T14:20:24;18.40;99.90
3172;DHT22;1597;51.572;6.992;2023-07-29T14:22:50;18.30;99.90
3172;DHT22;1597;51.572;6.992;2023-07-29T14:25:16;18.30;99.90
3172;DHT22;1597;51.572;6.992;2023-07-29T14:27:42;18.30;99.90
3172;DHT22;1597;51.572;6.992;2023-07-29T14:30:08;18.40;99.90
3172;DHT22;1597;51.572;6.992;2023-07-29T14:32:34;18.60;99.90
3172;DHT22;1597;51.572;6.992;2023-07-29T14:34:59;18.70;99.90
3172;DHT22;1597;51.572;6.992;2023-07-29T14:37:30;18.80;99.90
3172;DHT22;1597;51.572;6.992;2023-07-29T14:39:59;18.90;99.90
3172;DHT22;1597;51.572;6.992;2023-07-29T14:42:27;19.10;99.90
3172;DHT22;1597;51.572;6.992;2023-07-29T14:44:53;19.20;99.90
3172;DHT22;1597;51.572;6.992;2023-07-29T14:47:20;19.30;99.90
3172;DHT22;1597;51.572;6.992;2023-07-29T14:49:45;19.50;99.90
3172;DHT22;1597;51.572;6.992;2023-07-29T14:52:11;19.70;99.90
3172;DHT22;1597;51.572;6.992;2023-07-29T14:54:37;19.90;99.90
3172;DHT22;1597;51.572;6.992;2023-07-29T14:57:05;19.90;99.90
3172;DHT22;1597;51.572;6.992;2023-07-29T14:59:32;19.90;99.90
3172;DHT22;1597;51.572;6.992;2023-07-29T15:01:57;20.00;99.90
3172;DHT22;1597;51.572;6.992;2023-07-29T15:04:24;20.00;99.90
3172;DHT22;1597;51.572;6.992;2023-07-29T15:06:50;20.10;99.90
3172;DHT22;1597;51.572;6.992;2023-07-29T15:09:17;20.20;99.90
3172;DHT22;1597;51.572;6.992;2023-07-29T15:11:43;20.40;99.90
3172;DHT22;1597;51.572;6.992;2023-07-29T15:14:09;20.40;99.90
3172;DHT22;1597;51.572;6.992;2023-07-29T15:16:34;20.30;99.90
3172;DHT22;1597;51.572;6.992;2023-07-29T15:19:02;20.30;99.90
3172;DHT22;1597;51.572;6.992;2023-07-29T15:21:30;20.20;99.90
3172;DHT22;1597;51.572;6.992;2023-07-29T15:23:55;20.20;99.90
3172;DHT22;1597;51.572;6.992;2023-07-29T15:26:21;20.10;99.90
3172;DHT22;1597;51.572;6.992;2023-07-29T15:28:47;20.10;99.90
3172;DHT22;1597;51.572;6.992;2023-07-29T15:31:13;20.10;99.90
3172;DHT22;1597;51.572;6.992;2023-07-29T15:33:39;20.10;99.90
3172;DHT22;1597;51.572;6.992;2023-07-29T15:36:05;20.10;99.90
3172;DHT22;1597;51.572;6.992;2023-07-29T15:38:31;20.00;99.90
3172;DHT22;1597;51.572;6.992;2023-07-29T15:40:59;20.00;99.90
3172;DHT22;1597;51.572;6.992;2023-07-29T15:43:25;20.00;99.90
3172;DHT22;1597;51.572;6.992;2023-07-29T15:45:52;20.00;99.90
3172;DHT22;1597;51.572;6.992;2023-07-29T15:48:18;20.00;99.90
3172;DHT22;1597;51.572;6.992;2023-07-29T15:50:44;20.00;99.90
3172;DHT22;1597;51.572;6.992;2023-07-29T15:53:10;20.00;99.90
3172;DHT22;1597;51.572;6.992;2023-07-29T15:55:36;20.10;99.90
3172;DHT22;1597;51.572;6.992;2023-07-29T15:58:02;20.10;99.90
3172;DHT22;1597;51.572;6.992;2023-07-29T16:00:28;20.20;99.90
3172;DHT22;1597;51.572;6.992;2023-07-29T16:02:55;20.30;99.90
3172;DHT22;1597;51.572;6.992;2023-07-29T16:05:21;20.40;99.90
3172;DHT22;1597;51.572;6.992;2023-07-29T16:07:47;20.40;99.90
3172;DHT22;1597;51.572;6.992;2023-07-29T16:10:13;20.50;99.90
3172;DHT22;1597;51.572;6.992;2023-07-29T16:12:38;20.50;99.90
3172;DHT22;1597;51.572;6.992;2023-07-29T16:15:06;20.60;99.90
3172;DHT22;1597;51.572;6.992;2023-07-29T16:17:33;20.60;99.90
3172;DHT22;1597;51.572;6.992;2023-07-29T16:20:00;20.60;99.90
3172;DHT22;1597;51.572;6.992;2023-07-29T16:22:28;20.60;99.90
3172;DHT22;1597;51.572;6.992;2023-07-29T16:24:55;20.60;99.90
3172;DHT22;1597;51.572;6.992;2023-07-29T16:27:22;20.50;99.90
3172;DHT22;1597;51.572;6.992;2023-07-29T16:29:51;20.50;99.90
3172;DHT22;1597;51.572;6.992;2023-07-29T16:32:17;20.50;99.90
3172;DHT22;1597;51.572;6.992;2023-07-29T16:34:43;20.50;99.90
3172;DHT22;1597;51.572;6.992;2023-07-29T16:37:09;20.60;99.90
3172;DHT22;1597;51.572;6.992;2023-07-29T16:39:35;20.60;99.90
3172;DHT22;1597;51.572;6.992;2023-07-29T16:42:01;20.70;99.90
3172;DHT22;1597;51.572;6.992;2023-07-29T16:44:27;20.70;99.90
3172;DHT22;1597;51.572;6.992;2023-07-29T16:46:53;20.70;99.90
3172;DHT22;1597;51.572;6.992;2023-07-29T16:49:19;20.80;99.90
3172;DHT22;1597;51.572;6.992;2023-07-29T16:51:45;20.80;99.90
3172;DHT22;1597;51.572;6.992;2023-07-29T16:54:11;20.80;99.90
3172;DHT22;1597;51.572;6.992;2023-07-29T16:56:37;20.80;99.90
3172;DHT22;1597;51.572;6.992;2023-07-29T16:59:03;20.90;99.90
3172;DHT22;1597;51.572;6.992;2023-07-29T17:01:30;20.90;99.90